sensor_id;sensor_type;location;lat;lon;timestamp;temperature;humidity
21473;DHT22;10898;48.072;11.682;2022-08-01T00:00:39;21.40;94.70
21473;DHT22;10898;48.072;11.682;2022-08-01T00:02:41;21.40;94.80
21473;DHT22;10898;48.072;11.682;2022-08-01T00:04:42;21.50;94.90
21473;DHT22;10898;48.072;11.682;2022-08-01T00:06:44;21.50;95.00
21473;DHT22;10898;48.072;11.682;2022-08-01T00:08:46;21.50;95.20
21473;DHT22;10898;48.072;11.682;2022-08-01T00:10:48;21.40;95.40
21473;DHT22;10898;48.072;11.682;2022-08-01T00:12:50;21.50;95.30
21473;DHT22;10898;48.072;11.682;2022-08-01T00:14:51;21.50;95.40
21473;DHT22;10898;48.072;11.682;2022-08-01T00:16:53;21.50;95.70
21473;DHT22;10898;48.072;11.682;2022-08-01T00:18:55;21.50;95.60
21473;DHT22;10898;48.072;11.682;2022-08-01T00:20:56;21.50;95.40
21473;DHT22;10898;48.072;11.682;2022-08-01T00:22:58;21.40;95.60
21473;DHT22;10898;48.072;11.682;2022-08-01T00:25:00;21.50;95.40
21473;DHT22;10898;48.072;11.682;2022-08-01T00:27:02;21.40;95.70
21473;DHT22;10898;48.072;11.682;2022-08-01T00:29:04;21.50;94.80
21473;DHT22;10898;48.072;11.682;2022-08-01T00:31:25;21.50;95.30
21473;DHT22;10898;48.072;11.682;2022-08-01T00:33:27;21.40;94.60
21473;DHT22;10898;48.072;11.682;2022-08-01T00:35:29;21.40;94.80
21473;DHT22;10898;48.072;11.682;2022-08-01T00:37:31;21.40;95.40
21473;DHT22;10898;48.072;11.682;2022-08-01T00:39:32;21.40;95.30
21473;DHT22;10898;48.072;11.682;2022-08-01T00:41:34;21.40;95.00
21473;DHT22;10898;48.072;11.682;2022-08-01T00:43:36;21.40;95.40
21473;DHT22;10898;48.072;11.682;2022-08-01T00:45:38;21.40;94.80
21473;DHT22;10898;48.072;11.682;2022-08-01T00:47:39;21.40;95.50
21473;DHT22;10898;48.072;11.682;2022-08-01T00:49:41;21.40;94.60
21473;DHT22;10898;48.072;11.682;2022-08-01T00:51:43;21.40;95.30
21473;DHT22;10898;48.072;11.682;2022-08-01T00:53:45;21.40;94.90
21473;DHT22;10898;48.072;11.682;2022-08-01T00:55:53;21.40;95.10
21473;DHT22;10898;48.072;11.682;2022-08-01T00:57:55;21.30;95.00
21473;DHT22;10898;48.072;11.682;2022-08-01T01:00:06;21.30;95.40
21473;DHT22;10898;48.072;11.682;2022-08-01T01:02:08;21.30;95.30
21473;DHT22;10898;48.072;11.682;2022-08-01T01:04:16;21.30;95.20
21473;DHT22;10898;48.072;11.682;2022-08-01T01:06:31;21.20;94.60
21473;DHT22;10898;48.072;11.682;2022-08-01T01:08:37;21.20;94.80
21473;DHT22;10898;48.072;11.682;2022-08-01T01:10:48;21.20;95.60
21473;DHT22;10898;48.072;11.682;2022-08-01T01:12:54;21.20;95.10
21473;DHT22;10898;48.072;11.682;2022-08-01T01:17:02;21.10;94.90
21473;DHT22;10898;48.072;11.682;2022-08-01T01:19:04;21.10;94.80
21473;DHT22;10898;48.072;11.682;2022-08-01T01:21:13;21.10;95.00
21473;DHT22;10898;48.072;11.682;2022-08-01T01:30:02;21.00;94.90
21473;DHT22;10898;48.072;11.682;2022-08-01T01:32:05;21.00;94.80
21473;DHT22;10898;48.072;11.682;2022-08-01T01:34:09;21.00;95.50
21473;DHT22;10898;48.072;11.682;2022-08-01T01:36:12;20.90;95.80
21473;DHT22;10898;48.072;11.682;2022-08-01T01:38:23;20.90;94.80
21473;DHT22;10898;48.072;11.682;2022-08-01T01:40:26;20.80;94.80
21473;DHT22;10898;48.072;11.682;2022-08-01T01:42:28;20.80;94.50
21473;DHT22;10898;48.072;11.682;2022-08-01T01:44:31;20.90;94.90
21473;DHT22;10898;48.072;11.682;2022-08-01T01:46:33;20.80;94.80
21473;DHT22;10898;48.072;11.682;2022-08-01T01:48:35;20.80;94.20
21473;DHT22;10898;48.072;11.682;2022-08-01T01:50:37;20.80;94.20
21473;DHT22;10898;48.072;11.682;2022-08-01T01:52:40;20.80;94.10
21473;DHT22;10898;48.072;11.682;2022-08-01T01:54:46;20.80;94.20
21473;DHT22;10898;48.072;11.682;2022-08-01T01:56:48;20.80;94.20
21473;DHT22;10898;48.072;11.682;2022-08-01T01:58:54;20.80;94.80
21473;DHT22;10898;48.072;11.682;2022-08-01T02:00:57;20.80;94.20
21473;DHT22;10898;48.072;11.682;2022-08-01T02:03:04;20.80;94.40
21473;DHT22;10898;48.072;11.682;2022-08-01T02:05:07;20.80;94.80
21473;DHT22;10898;48.072;11.682;2022-08-01T02:07:11;20.80;94.00
21473;DHT22;10898;48.072;11.682;2022-08-01T02:09:14;20.80;94.00
21473;DHT22;10898;48.072;11.682;2022-08-01T02:11:19;20.80;93.80
21473;DHT22;10898;48.072;11.682;2022-08-01T02:13:21;20.80;93.60
21473;DHT22;10898;48.072;11.682;2022-08-01T02:15:23;20.80;93.60
21473;DHT22;10898;48.072;11.682;2022-08-01T02:17:25;20.80;93.50
21473;DHT22;10898;48.072;11.682;2022-08-01T02:19:28;20.80;93.60
21473;DHT22;10898;48.072;11.682;2022-08-01T02:21:30;20.80;93.40
21473;DHT22;10898;48.072;11.682;2022-08-01T02:23:34;20.80;93.70
21473;DHT22;10898;48.072;11.682;2022-08-01T02:28:45;20.80;93.70
21473;DHT22;10898;48.072;11.682;2022-08-01T02:30:33;20.80;93.80
21473;DHT22;10898;48.072;11.682;2022-08-01T02:32:41;20.80;93.50
21473;DHT22;10898;48.072;11.682;2022-08-01T02:34:45;20.80;93.70
21473;DHT22;10898;48.072;11.682;2022-08-01T02:36:47;20.80;93.80
21473;DHT22;10898;48.072;11.682;2022-08-01T02:38:50;20.80;93.40
21473;DHT22;10898;48.072;11.682;2022-08-01T02:40:54;20.80;93.50
21473;DHT22;10898;48.072;11.682;2022-08-01T02:42:59;20.80;93.40
21473;DHT22;10898;48.072;11.682;2022-08-01T02:45:02;20.80;93.40
21473;DHT22;10898;48.072;11.682;2022-08-01T02:47:05;20.80;94.10
21473;DHT22;10898;48.072;11.682;2022-08-01T02:49:07;20.70;93.70
21473;DHT22;10898;48.072;11.682;2022-08-01T02:51:10;20.70;93.60
21473;DHT22;10898;48.072;11.682;2022-08-01T02:53:13;20.60;93.40
21473;DHT22;10898;48.072;11.682;2022-08-01T02:55:16;20.60;93.50
21473;DHT22;10898;48.072;11.682;2022-08-01T02:57:19;20.60;93.50
21473;DHT22;10898;48.072;11.682;2022-08-01T02:59:22;20.60;93.70
21473;DHT22;10898;48.072;11.682;2022-08-01T03:01:27;20.60;93.70
21473;DHT22;10898;48.072;11.682;2022-08-01T03:03:32;20.60;93.60
21473;DHT22;10898;48.072;11.682;2022-08-01T03:05:35;20.50;93.80
21473;DHT22;10898;48.072;11.682;2022-08-01T03:07:37;20.50;93.90
21473;DHT22;10898;48.072;11.682;2022-08-01T03:09:42;20.50;93.60
21473;DHT22;10898;48.072;11.682;2022-08-01T03:11:45;20.50;93.60
21473;DHT22;10898;48.072;11.682;2022-08-01T03:13:48;20.50;93.40
21473;DHT22;10898;48.072;11.682;2022-08-01T03:15:49;20.50;93.60
21473;DHT22;10898;48.072;11.682;2022-08-01T03:17:52;20.50;94.10
21473;DHT22;10898;48.072;11.682;2022-08-01T03:19:56;20.50;94.30
21473;DHT22;10898;48.072;11.682;2022-08-01T03:21:58;20.50;94.80
21473;DHT22;10898;48.072;11.682;2022-08-01T03:24:01;20.40;94.00
21473;DHT22;10898;48.072;11.682;2022-08-01T03:26:05;20.40;93.70
21473;DHT22;10898;48.072;11.682;2022-08-01T03:28:08;20.40;94.70
21473;DHT22;10898;48.072;11.682;2022-08-01T03:30:10;20.40;94.00
21473;DHT22;10898;48.072;11.682;2022-08-01T03:32:12;20.30;94.20
21473;DHT22;10898;48.072;11.682;2022-08-01T03:34:14;20.30;93.80
21473;DHT22;10898;48.072;11.682;2022-08-01T03:36:16;20.30;93.90
21473;DHT22;10898;48.072;11.682;2022-08-01T03:38:21;20.20;94.90
21473;DHT22;10898;48.072;11.682;2022-08-01T03:40:25;20.20;95.30
21473;DHT22;10898;48.072;11.682;2022-08-01T03:42:31;20.20;94.90
21473;DHT22;10898;48.072;11.682;2022-08-01T03:44:34;20.20;94.60
21473;DHT22;10898;48.072;11.682;2022-08-01T03:46:42;20.20;95.50
21473;DHT22;10898;48.072;11.682;2022-08-01T03:48:47;20.20;95.30
21473;DHT22;10898;48.072;11.682;2022-08-01T03:50:50;20.10;95.20
21473;DHT22;10898;48.072;11.682;2022-08-01T03:52:53;20.10;95.60
21473;DHT22;10898;48.072;11.682;2022-08-01T03:54:56;20.10;95.80
21473;DHT22;10898;48.072;11.682;2022-08-01T03:56:59;20.00;96.00
21473;DHT22;10898;48.072;11.682;2022-08-01T03:59:01;20.00;96.30
21473;DHT22;10898;48.072;11.682;2022-08-01T04:01:05;20.00;96.60
21473;DHT22;10898;48.072;11.682;2022-08-01T04:03:16;19.90;96.60
21473;DHT22;10898;48.072;11.682;2022-08-01T04:05:18;19.90;96.80
21473;DHT22;10898;48.072;11.682;2022-08-01T04:07:27;19.80;97.00
21473;DHT22;10898;48.072;11.682;2022-08-01T04:09:30;19.80;97.20
21473;DHT22;10898;48.072;11.682;2022-08-01T04:11:32;19.70;97.50
21473;DHT22;10898;48.072;11.682;2022-08-01T04:13:34;19.70;98.00
21473;DHT22;10898;48.072;11.682;2022-08-01T04:15:37;19.70;98.30
21473;DHT22;10898;48.072;11.682;2022-08-01T04:17:39;19.70;98.50
21473;DHT22;10898;48.072;11.682;2022-08-01T04:19:41;19.60;98.60
21473;DHT22;10898;48.072;11.682;2022-08-01T04:21:43;19.60;98.80
21473;DHT22;10898;48.072;11.682;2022-08-01T04:23:45;19.60;98.90
21473;DHT22;10898;48.072;11.682;2022-08-01T04:25:52;19.60;98.70
21473;DHT22;10898;48.072;11.682;2022-08-01T04:27:54;19.50;98.90
21473;DHT22;10898;48.072;11.682;2022-08-01T04:29:56;19.50;99.10
21473;DHT22;10898;48.072;11.682;2022-08-01T04:31:59;19.50;99.50
21473;DHT22;10898;48.072;11.682;2022-08-01T04:34:02;19.50;99.30
21473;DHT22;10898;48.072;11.682;2022-08-01T04:36:06;19.40;99.40
21473;DHT22;10898;48.072;11.682;2022-08-01T04:38:09;19.40;99.50
21473;DHT22;10898;48.072;11.682;2022-08-01T04:40:11;19.40;99.70
21473;DHT22;10898;48.072;11.682;2022-08-01T04:42:13;19.40;99.90
21473;DHT22;10898;48.072;11.682;2022-08-01T04:44:15;19.40;99.90
21473;DHT22;10898;48.072;11.682;2022-08-01T04:46:17;19.30;99.90
21473;DHT22;10898;48.072;11.682;2022-08-01T04:48:20;19.40;99.90
21473;DHT22;10898;48.072;11.682;2022-08-01T04:50:23;19.30;99.90
21473;DHT22;10898;48.072;11.682;2022-08-01T04:52:32;19.30;99.90
21473;DHT22;10898;48.072;11.682;2022-08-01T04:54:34;19.40;99.90
21473;DHT22;10898;48.072;11.682;2022-08-01T04:56:38;19.30;99.90
21473;DHT22;10898;48.072;11.682;2022-08-01T04:58:40;19.30;99.90
21473;DHT22;10898;48.072;11.682;2022-08-01T05:00:42;19.30;99.90
21473;DHT22;10898;48.072;11.682;2022-08-01T05:02:44;19.30;99.90
21473;DHT22;10898;48.072;11.682;2022-08-01T05:04:46;19.30;99.90
21473;DHT22;10898;48.072;11.682;2022-08-01T05:06:48;19.30;99.90
21473;DHT22;10898;48.072;11.682;2022-08-01T05:08:49;19.30;99.90
21473;DHT22;10898;48.072;11.682;2022-08-01T05:10:51;19.30;99.90
21473;DHT22;10898;48.072;11.682;2022-08-01T05:12:54;19.30;99.90
21473;DHT22;10898;48.072;11.682;2022-08-01T05:14:56;19.40;99.90
21473;DHT22;10898;48.072;11.682;2022-08-01T05:16:58;19.40;99.90
21473;DHT22;10898;48.072;11.682;2022-08-01T05:19:00;19.40;99.90
21473;DHT22;10898;48.072;11.682;2022-08-01T05:21:03;19.50;99.90
21473;DHT22;10898;48.072;11.682;2022-08-01T05:23:05;19.50;99.90
21473;DHT22;10898;48.072;11.682;2022-08-01T05:25:11;19.60;99.90
21473;DHT22;10898;48.072;11.682;2022-08-01T05:27:19;19.60;99.90
21473;DHT22;10898;48.072;11.682;2022-08-01T05:29:20;19.70;99.90
21473;DHT22;10898;48.072;11.682;2022-08-01T05:31:22;19.70;99.90
21473;DHT22;10898;48.072;11.682;2022-08-01T05:33:24;19.70;99.90
21473;DHT22;10898;48.072;11.682;2022-08-01T05:35:25;19.70;99.90
21473;DHT22;10898;48.072;11.682;2022-08-01T05:37:47;19.80;99.90
21473;DHT22;10898;48.072;11.682;2022-08-01T05:39:49;19.90;99.90
21473;DHT22;10898;48.072;11.682;2022-08-01T05:41:50;19.90;99.90
21473;DHT22;10898;48.072;11.682;2022-08-01T05:43:52;19.90;99.90
21473;DHT22;10898;48.072;11.682;2022-08-01T05:45:54;20.00;99.90
21473;DHT22;10898;48.072;11.682;2022-08-01T05:47:56;20.00;99.90
21473;DHT22;10898;48.072;11.682;2022-08-01T05:49:57;20.10;99.90
21473;DHT22;10898;48.072;11.682;2022-08-01T05:51:59;20.20;99.60
21473;DHT22;10898;48.072;11.682;2022-08-01T05:54:03;20.20;99.40
21473;DHT22;10898;48.072;11.682;2022-08-01T05:56:05;20.30;99.00
21473;DHT22;10898;48.072;11.682;2022-08-01T05:58:07;20.30;98.90
21473;DHT22;10898;48.072;11.682;2022-08-01T06:00:13;20.40;98.50
21473;DHT22;10898;48.072;11.682;2022-08-01T06:02:15;20.40;98.50
21473;DHT22;10898;48.072;11.682;2022-08-01T06:04:17;20.50;98.40
21473;DHT22;10898;48.072;11.682;2022-08-01T06:06:19;20.50;98.00
21473;DHT22;10898;48.072;11.682;2022-08-01T06:08:26;20.60;97.90
21473;DHT22;10898;48.072;11.682;2022-08-01T06:10:28;20.70;97.80
21473;DHT22;10898;48.072;11.682;2022-08-01T06:12:32;20.80;97.30
21473;DHT22;10898;48.072;11.682;2022-08-01T06:14:36;20.80;97.20
21473;DHT22;10898;48.072;11.682;2022-08-01T06:16:37;20.90;97.10
21473;DHT22;10898;48.072;11.682;2022-08-01T06:18:39;21.10;96.20
21473;DHT22;10898;48.072;11.682;2022-08-01T06:20:41;21.20;95.70
21473;DHT22;10898;48.072;11.682;2022-08-01T06:22:43;21.30;95.20
21473;DHT22;10898;48.072;11.682;2022-08-01T06:24:52;21.30;95.00
21473;DHT22;10898;48.072;11.682;2022-08-01T06:26:54;21.30;94.80
21473;DHT22;10898;48.072;11.682;2022-08-01T06:28:56;21.40;94.70
21473;DHT22;10898;48.072;11.682;2022-08-01T06:30:57;21.40;94.80
21473;DHT22;10898;48.072;11.682;2022-08-01T06:33:00;21.50;94.70
21473;DHT22;10898;48.072;11.682;2022-08-01T06:35:02;21.60;94.30
21473;DHT22;10898;48.072;11.682;2022-08-01T06:37:04;21.70;94.10
21473;DHT22;10898;48.072;11.682;2022-08-01T06:39:07;21.70;93.90
21473;DHT22;10898;48.072;11.682;2022-08-01T06:41:09;21.80;93.40
21473;DHT22;10898;48.072;11.682;2022-08-01T06:43:10;21.90;93.00
21473;DHT22;10898;48.072;11.682;2022-08-01T06:45:15;21.90;92.80
21473;DHT22;10898;48.072;11.682;2022-08-01T06:47:17;22.00;92.20
21473;DHT22;10898;48.072;11.682;2022-08-01T06:49:19;22.00;92.30
21473;DHT22;10898;48.072;11.682;2022-08-01T06:51:20;22.10;91.90
21473;DHT22;10898;48.072;11.682;2022-08-01T06:53:24;22.30;91.20
21473;DHT22;10898;48.072;11.682;2022-08-01T06:55:26;22.20;91.60
21473;DHT22;10898;48.072;11.682;2022-08-01T06:57:28;22.20;91.60
21473;DHT22;10898;48.072;11.682;2022-08-01T06:59:29;22.30;91.60
21473;DHT22;10898;48.072;11.682;2022-08-01T07:01:31;22.40;91.20
21473;DHT22;10898;48.072;11.682;2022-08-01T07:03:35;22.40;90.80
21473;DHT22;10898;48.072;11.682;2022-08-01T07:05:55;22.50;90.60
21473;DHT22;10898;48.072;11.682;2022-08-01T07:07:56;22.50;90.20
21473;DHT22;10898;48.072;11.682;2022-08-01T07:09:58;22.50;90.40
21473;DHT22;10898;48.072;11.682;2022-08-01T07:12:00;22.60;90.20
21473;DHT22;10898;48.072;11.682;2022-08-01T07:14:02;22.60;90.20
21473;DHT22;10898;48.072;11.682;2022-08-01T07:16:04;22.70;90.20
21473;DHT22;10898;48.072;11.682;2022-08-01T07:18:06;22.70;90.10
21473;DHT22;10898;48.072;11.682;2022-08-01T07:20:08;22.70;90.30
21473;DHT22;10898;48.072;11.682;2022-08-01T07:22:11;22.80;89.60
21473;DHT22;10898;48.072;11.682;2022-08-01T07:24:22;22.80;89.90
21473;DHT22;10898;48.072;11.682;2022-08-01T07:26:27;22.90;88.90
21473;DHT22;10898;48.072;11.682;2022-08-01T07:28:29;22.90;89.70
21473;DHT22;10898;48.072;11.682;2022-08-01T07:30:31;23.00;89.10
21473;DHT22;10898;48.072;11.682;2022-08-01T07:32:32;23.00;89.00
21473;DHT22;10898;48.072;11.682;2022-08-01T07:34:36;23.00;89.20
21473;DHT22;10898;48.072;11.682;2022-08-01T07:36:38;23.10;88.50
21473;DHT22;10898;48.072;11.682;2022-08-01T07:38:39;23.20;88.50
21473;DHT22;10898;48.072;11.682;2022-08-01T07:40:41;23.20;88.50
21473;DHT22;10898;48.072;11.682;2022-08-01T07:42:43;23.30;88.50
21473;DHT22;10898;48.072;11.682;2022-08-01T07:44:46;23.30;87.70
21473;DHT22;10898;48.072;11.682;2022-08-01T07:46:47;23.40;87.30
21473;DHT22;10898;48.072;11.682;2022-08-01T07:48:49;23.40;87.30
21473;DHT22;10898;48.072;11.682;2022-08-01T07:50:51;23.50;86.50
21473;DHT22;10898;48.072;11.682;2022-08-01T07:52:53;23.60;85.60
21473;DHT22;10898;48.072;11.682;2022-08-01T07:54:55;23.50;85.70
21473;DHT22;10898;48.072;11.682;2022-08-01T07:56:57;23.50;86.20
21473;DHT22;10898;48.072;11.682;2022-08-01T07:58:59;23.60;86.40
21473;DHT22;10898;48.072;11.682;2022-08-01T08:01:01;23.70;85.80
21473;DHT22;10898;48.072;11.682;2022-08-01T08:03:02;23.70;85.60
21473;DHT22;10898;48.072;11.682;2022-08-01T08:05:04;23.80;85.10
21473;DHT22;10898;48.072;11.682;2022-08-01T08:07:08;23.80;85.70
21473;DHT22;10898;48.072;11.682;2022-08-01T08:09:10;23.90;85.90
21473;DHT22;10898;48.072;11.682;2022-08-01T08:11:12;23.90;85.50
21473;DHT22;10898;48.072;11.682;2022-08-01T08:13:14;24.00;84.80
21473;DHT22;10898;48.072;11.682;2022-08-01T08:15:19;24.00;85.40
21473;DHT22;10898;48.072;11.682;2022-08-01T08:17:20;24.10;84.30
21473;DHT22;10898;48.072;11.682;2022-08-01T08:19:22;24.20;84.80
21473;DHT22;10898;48.072;11.682;2022-08-01T08:21:39;24.30;84.70
21473;DHT22;10898;48.072;11.682;2022-08-01T08:23:40;24.30;82.50
21473;DHT22;10898;48.072;11.682;2022-08-01T08:26:01;24.30;83.20
21473;DHT22;10898;48.072;11.682;2022-08-01T08:28:03;24.40;83.00
21473;DHT22;10898;48.072;11.682;2022-08-01T08:30:05;24.40;82.20
21473;DHT22;10898;48.072;11.682;2022-08-01T08:32:09;24.40;82.60
21473;DHT22;10898;48.072;11.682;2022-08-01T08:34:12;24.40;82.80
21473;DHT22;10898;48.072;11.682;2022-08-01T08:36:16;24.40;82.10
21473;DHT22;10898;48.072;11.682;2022-08-01T08:38:18;24.50;80.80
21473;DHT22;10898;48.072;11.682;2022-08-01T08:40:29;24.50;81.10
21473;DHT22;10898;48.072;11.682;2022-08-01T08:42:31;24.50;81.10
21473;DHT22;10898;48.072;11.682;2022-08-01T08:44:33;24.60;80.80
21473;DHT22;10898;48.072;11.682;2022-08-01T08:46:38;24.60;80.50
21473;DHT22;10898;48.072;11.682;2022-08-01T08:48:41;24.70;80.20
21473;DHT22;10898;48.072;11.682;2022-08-01T08:50:43;24.60;80.10
21473;DHT22;10898;48.072;11.682;2022-08-01T08:52:47;24.70;80.30
21473;DHT22;10898;48.072;11.682;2022-08-01T08:54:50;24.70;79.60
21473;DHT22;10898;48.072;11.682;2022-08-01T08:56:52;24.80;79.10
21473;DHT22;10898;48.072;11.682;2022-08-01T08:58:55;24.80;79.50
21473;DHT22;10898;48.072;11.682;2022-08-01T09:00:56;24.80;79.00
21473;DHT22;10898;48.072;11.682;2022-08-01T09:02:58;24.90;79.00
21473;DHT22;10898;48.072;11.682;2022-08-01T09:05:00;24.90;77.90
21473;DHT22;10898;48.072;11.682;2022-08-01T09:07:03;25.00;78.20
21473;DHT22;10898;48.072;11.682;2022-08-01T09:09:06;25.00;77.00
21473;DHT22;10898;48.072;11.682;2022-08-01T09:11:08;25.10;76.90
21473;DHT22;10898;48.072;11.682;2022-08-01T09:13:12;25.10;76.60
21473;DHT22;10898;48.072;11.682;2022-08-01T09:15:14;25.10;76.10
21473;DHT22;10898;48.072;11.682;2022-08-01T09:17:16;25.10;76.50
21473;DHT22;10898;48.072;11.682;2022-08-01T09:19:18;25.10;76.90
21473;DHT22;10898;48.072;11.682;2022-08-01T09:21:56;25.20;77.90
21473;DHT22;10898;48.072;11.682;2022-08-01T09:23:59;25.20;77.70
21473;DHT22;10898;48.072;11.682;2022-08-01T09:26:04;25.30;76.60
21473;DHT22;10898;48.072;11.682;2022-08-01T09:28:06;25.40;76.40
21473;DHT22;10898;48.072;11.682;2022-08-01T09:30:09;25.40;76.50
21473;DHT22;10898;48.072;11.682;2022-08-01T09:32:12;25.40;75.80
21473;DHT22;10898;48.072;11.682;2022-08-01T09:34:23;25.40;75.70
21473;DHT22;10898;48.072;11.682;2022-08-01T09:36:25;25.50;75.20
21473;DHT22;10898;48.072;11.682;2022-08-01T09:38:27;25.50;75.00
21473;DHT22;10898;48.072;11.682;2022-08-01T09:42:50;25.60;73.10
21473;DHT22;10898;48.072;11.682;2022-08-01T09:45:30;25.70;71.50
21473;DHT22;10898;48.072;11.682;2022-08-01T09:47:44;25.70;72.80
21473;DHT22;10898;48.072;11.682;2022-08-01T09:49:52;25.80;73.00
21473;DHT22;10898;48.072;11.682;2022-08-01T09:51:58;25.80;73.00
21473;DHT22;10898;48.072;11.682;2022-08-01T09:54:02;25.80;72.40
21473;DHT22;10898;48.072;11.682;2022-08-01T09:56:11;26.00;71.10
21473;DHT22;10898;48.072;11.682;2022-08-01T09:58:13;26.00;70.50
21473;DHT22;10898;48.072;11.682;2022-08-01T10:00:16;26.00;70.90
21473;DHT22;10898;48.072;11.682;2022-08-01T10:02:39;26.00;71.40
21473;DHT22;10898;48.072;11.682;2022-08-01T10:04:45;26.00;71.60
21473;DHT22;10898;48.072;11.682;2022-08-01T10:06:51;26.10;70.90
21473;DHT22;10898;48.072;11.682;2022-08-01T10:08:56;26.10;71.50
21473;DHT22;10898;48.072;11.682;2022-08-01T10:11:11;26.20;71.10
21473;DHT22;10898;48.072;11.682;2022-08-01T10:13:13;26.30;71.00
21473;DHT22;10898;48.072;11.682;2022-08-01T10:15:15;26.30;69.70
21473;DHT22;10898;48.072;11.682;2022-08-01T10:17:19;26.30;69.30
21473;DHT22;10898;48.072;11.682;2022-08-01T10:19:24;26.30;69.10
21473;DHT22;10898;48.072;11.682;2022-08-01T10:21:29;26.30;68.80
21473;DHT22;10898;48.072;11.682;2022-08-01T10:23:54;26.40;69.00
21473;DHT22;10898;48.072;11.682;2022-08-01T10:26:04;26.40;69.00
21473;DHT22;10898;48.072;11.682;2022-08-01T10:28:17;26.40;69.30
21473;DHT22;10898;48.072;11.682;2022-08-01T10:30:24;26.60;69.00
21473;DHT22;10898;48.072;11.682;2022-08-01T10:32:26;26.60;67.30
21473;DHT22;10898;48.072;11.682;2022-08-01T10:34:29;26.60;67.70
21473;DHT22;10898;48.072;11.682;2022-08-01T10:36:31;26.70;67.40
21473;DHT22;10898;48.072;11.682;2022-08-01T10:38:33;26.80;67.10
21473;DHT22;10898;48.072;11.682;2022-08-01T10:40:35;26.90;67.10
21473;DHT22;10898;48.072;11.682;2022-08-01T10:42:39;27.00;66.90
21473;DHT22;10898;48.072;11.682;2022-08-01T10:44:40;27.10;65.90
21473;DHT22;10898;48.072;11.682;2022-08-01T10:46:44;27.10;65.60
21473;DHT22;10898;48.072;11.682;2022-08-01T10:48:54;27.20;65.90
21473;DHT22;10898;48.072;11.682;2022-08-01T10:51:01;27.20;66.50
21473;DHT22;10898;48.072;11.682;2022-08-01T10:53:06;27.20;67.00
21473;DHT22;10898;48.072;11.682;2022-08-01T10:55:17;27.30;66.40
21473;DHT22;10898;48.072;11.682;2022-08-01T10:57:18;27.30;66.40
21473;DHT22;10898;48.072;11.682;2022-08-01T10:59:28;27.40;66.50
21473;DHT22;10898;48.072;11.682;2022-08-01T11:01:57;27.40;64.40
21473;DHT22;10898;48.072;11.682;2022-08-01T11:06:03;27.60;62.80
21473;DHT22;10898;48.072;11.682;2022-08-01T11:08:21;27.60;63.60
21473;DHT22;10898;48.072;11.682;2022-08-01T11:12:46;27.70;65.10
21473;DHT22;10898;48.072;11.682;2022-08-01T11:17:29;27.80;63.60
21473;DHT22;10898;48.072;11.682;2022-08-01T11:24:02;27.70;63.30
21473;DHT22;10898;48.072;11.682;2022-08-01T11:30:29;27.50;63.80
21473;DHT22;10898;48.072;11.682;2022-08-01T11:32:31;27.50;63.80
21473;DHT22;10898;48.072;11.682;2022-08-01T11:34:53;27.40;63.70
21473;DHT22;10898;48.072;11.682;2022-08-01T11:37:22;27.30;63.30
21473;DHT22;10898;48.072;11.682;2022-08-01T11:39:26;27.30;63.50
21473;DHT22;10898;48.072;11.682;2022-08-01T11:41:30;27.20;63.80
21473;DHT22;10898;48.072;11.682;2022-08-01T11:43:58;27.00;63.70
21473;DHT22;10898;48.072;11.682;2022-08-01T11:46:00;27.10;64.10
21473;DHT22;10898;48.072;11.682;2022-08-01T11:48:03;27.10;63.50
21473;DHT22;10898;48.072;11.682;2022-08-01T11:52:30;27.00;64.10
21473;DHT22;10898;48.072;11.682;2022-08-01T11:54:41;27.00;64.60
21473;DHT22;10898;48.072;11.682;2022-08-01T11:56:43;27.00;64.30
21473;DHT22;10898;48.072;11.682;2022-08-01T11:58:48;27.00;64.10
21473;DHT22;10898;48.072;11.682;2022-08-01T12:00:52;27.00;64.60
21473;DHT22;10898;48.072;11.682;2022-08-01T12:03:04;27.10;64.80
21473;DHT22;10898;48.072;11.682;2022-08-01T12:05:09;27.20;63.90
21473;DHT22;10898;48.072;11.682;2022-08-01T12:07:14;27.30;62.10
21473;DHT22;10898;48.072;11.682;2022-08-01T12:11:18;27.60;63.10
21473;DHT22;10898;48.072;11.682;2022-08-01T12:13:21;27.70;63.00
21473;DHT22;10898;48.072;11.682;2022-08-01T12:15:23;27.80;63.00
21473;DHT22;10898;48.072;11.682;2022-08-01T12:17:33;27.90;62.60
21473;DHT22;10898;48.072;11.682;2022-08-01T12:19:35;27.90;62.60
21473;DHT22;10898;48.072;11.682;2022-08-01T12:21:38;28.00;59.80
21473;DHT22;10898;48.072;11.682;2022-08-01T12:23:39;28.10;60.10
21473;DHT22;10898;48.072;11.682;2022-08-01T12:25:41;28.10;60.00
21473;DHT22;10898;48.072;11.682;2022-08-01T12:27:47;28.10;59.20
21473;DHT22;10898;48.072;11.682;2022-08-01T12:29:51;28.00;59.80
21473;DHT22;10898;48.072;11.682;2022-08-01T12:31:53;28.00;59.40
21473;DHT22;10898;48.072;11.682;2022-08-01T12:33:54;28.00;60.00
21473;DHT22;10898;48.072;11.682;2022-08-01T12:35:56;28.00;59.10
21473;DHT22;10898;48.072;11.682;2022-08-01T12:38:00;28.00;58.30
21473;DHT22;10898;48.072;11.682;2022-08-01T12:40:09;28.10;58.40
21473;DHT22;10898;48.072;11.682;2022-08-01T12:42:11;28.10;58.20
21473;DHT22;10898;48.072;11.682;2022-08-01T12:44:13;28.10;57.30
21473;DHT22;10898;48.072;11.682;2022-08-01T12:46:16;28.20;58.20
21473;DHT22;10898;48.072;11.682;2022-08-01T12:48:18;28.20;57.90
21473;DHT22;10898;48.072;11.682;2022-08-01T12:50:21;28.30;57.30
21473;DHT22;10898;48.072;11.682;2022-08-01T12:52:23;28.30;56.50
21473;DHT22;10898;48.072;11.682;2022-08-01T12:54:27;28.30;57.00
21473;DHT22;10898;48.072;11.682;2022-08-01T12:56:32;28.30;58.40
21473;DHT22;10898;48.072;11.682;2022-08-01T12:58:34;28.30;58.30
21473;DHT22;10898;48.072;11.682;2022-08-01T13:00:36;28.30;57.40
21473;DHT22;10898;48.072;11.682;2022-08-01T13:02:40;28.40;56.80
21473;DHT22;10898;48.072;11.682;2022-08-01T13:04:48;28.40;57.70
21473;DHT22;10898;48.072;11.682;2022-08-01T13:06:53;28.40;57.50
21473;DHT22;10898;48.072;11.682;2022-08-01T13:09:03;28.50;59.00
21473;DHT22;10898;48.072;11.682;2022-08-01T13:11:06;28.60;57.40
21473;DHT22;10898;48.072;11.682;2022-08-01T13:13:10;28.60;58.40
21473;DHT22;10898;48.072;11.682;2022-08-01T13:15:30;28.60;58.20
21473;DHT22;10898;48.072;11.682;2022-08-01T13:17:35;28.70;57.20
21473;DHT22;10898;48.072;11.682;2022-08-01T13:19:43;28.80;56.90
21473;DHT22;10898;48.072;11.682;2022-08-01T13:21:54;28.80;55.90
21473;DHT22;10898;48.072;11.682;2022-08-01T13:26:04;29.00;56.70
21473;DHT22;10898;48.072;11.682;2022-08-01T13:28:16;29.10;55.90